Time;durP1;ratioP1;P1;durP2;ratioP2;P2;SDS_P1;SDS_P2;PMS_P1;PMS_P2;Temp;Humidity;BMP_temperature;BMP_pressure;BME280_temperature;BME280_humidity;BME280_pressure;Samples;Min_cycle;Max_cycle;Signal;HPM_P1;HPM_P2
2022/07/07 00:01:32;;;;;;;;;;;;;;;27.97;36.76;100377.25;5065231;28;1114;-36
2022/07/07 00:03:57;;;;;;;;;;;;;;;27.96;35.95;100378.25;5068249;28;1039;-36
2022/07/07 00:06:23;;;;;;;;;;;;;;;27.99;36.59;100371.63;5067705;28;1029;-36
2022/07/07 00:08:48;;;;;;;;;;;;;;;27.94;36.27;100372.25;5059915;28;1056;-36
2022/07/07 00:11:14;;;;;;;;;;;;;;;27.98;37.04;100370.78;5069111;28;1000;-36
2022/07/07 00:13:39;;;;;;;;;;;;;;;27.93;35.65;100373.25;5063064;28;1955;-36
2022/07/07 00:16:04;;;;;;;;;;;;;;;27.97;36.72;100365.59;5066556;28;1059;-36
2022/07/07 00:18:30;;;;;;;;;;;;;;;27.99;36.79;100361.63;5070741;28;1242;-37
2022/07/07 00:20:55;;;;;;;;;;;;;;;27.93;35.75;100367.00;5068880;28;1032;-36
2022/07/07 00:23:20;;;;;;;;;;;;;;;28.01;36.69;100366.03;5064728;28;1139;-36
2022/07/07 00:25:45;;;;;;;;;;;;;;;28.01;36.61;100356.03;5070508;28;1028;-35
2022/07/07 00:28:11;;;;;;;;;;;;;;;28.00;36.39;100348.97;5065877;28;977;-37
2022/07/07 00:30:36;;;;;;;;;;;;;;;28.00;36.47;100354.38;5067596;28;1015;-36
2022/07/07 00:33:01;;;;;;;;;;;;;;;27.98;36.34;100357.28;5066511;28;1961;-37
2022/07/07 00:35:27;;;;;;;;;;;;;;;28.04;36.89;100354.81;5061241;28;1170;-36
2022/07/07 00:37:52;;;;;;;;;;;;;;;28.09;36.67;100355.88;5068865;28;1063;-36
2022/07/07 00:40:17;;;;;;;;;;;;;;;28.07;36.61;100351.72;5065568;28;1036;-36
2022/07/07 00:42:42;;;;;;;;;;;;;;;28.06;36.09;100350.06;5069903;28;1067;-36
2022/07/07 00:45:08;;;;;;;;;;;;;;;28.03;36.46;100355.88;5071216;28;988;-36
2022/07/07 00:47:33;;;;;;;;;;;;;;;27.95;36.05;100351.44;5064854;28;984;-35
2022/07/07 00:49:58;;;;;;;;;;;;;;;27.99;36.86;100361.63;5067025;28;1110;-37
2022/07/07 00:52:24;;;;;;;;;;;;;;;28.02;37.34;100365.00;5062994;28;1953;-36
2022/07/07 00:54:50;;;;;;;;;;;;;;;28.03;36.53;100362.09;5068112;28;1062;-36
2022/07/07 00:57:15;;;;;;;;;;;;;;;28.07;37.25;100360.66;5069771;28;1076;-36
2022/07/07 00:59:41;;;;;;;;;;;;;;;27.98;36.09;100362.69;5064934;28;1139;-36
2022/07/07 01:02:06;;;;;;;;;;;;;;;28.06;36.96;100364.38;5068392;28;1174;-36
2022/07/07 01:04:31;;;;;;;;;;;;;;;28.07;37.15;100368.78;5064035;28;1087;-35
2022/07/07 01:06:57;;;;;;;;;;;;;;;28.00;36.20;100365.19;5066772;28;1102;-35
2022/07/07 01:09:22;;;;;;;;;;;;;;;27.97;36.86;100369.13;5067768;28;1036;-37
2022/07/07 01:11:48;;;;;;;;;;;;;;;28.10;36.74;100356.72;5060204;28;1167;-36
2022/07/07 01:14:14;;;;;;;;;;;;;;;28.06;36.42;100363.56;5066361;28;1914;-37
2022/07/07 01:16:39;;;;;;;;;;;;;;;28.04;37.03;100363.78;5069362;28;1159;-37
2022/07/07 01:19:05;;;;;;;;;;;;;;;28.01;36.69;100358.72;5066338;28;1056;-36
2022/07/07 01:21:31;;;;;;;;;;;;;;;28.03;37.26;100356.69;5063321;28;1162;-36
2022/07/07 01:23:56;;;;;;;;;;;;;;;28.07;35.82;100352.56;5069991;28;985;-37
2022/07/07 01:26:21;;;;;;;;;;;;;;;28.04;36.95;100344.00;5071775;28;1136;-36
2022/07/07 01:28:46;;;;;;;;;;;;;;;27.99;36.51;100350.00;5064941;28;977;-36
2022/07/07 01:31:12;;;;;;;;;;;;;;;27.99;37.00;100342.72;5066171;28;1090;-37
2022/07/07 01:33:37;;;;;;;;;;;;;;;28.00;37.26;100357.06;5067370;28;1901;-36
2022/07/07 01:36:03;;;;;;;;;;;;;;;28.01;37.65;100358.72;5063777;28;1035;-36
2022/07/07 01:38:28;;;;;;;;;;;;;;;28.01;36.91;100366.03;5062456;28;1000;-36
2022/07/07 01:40:54;;;;;;;;;;;;;;;27.93;36.17;100370.56;5073469;28;798;-36
2022/07/07 01:43:19;;;;;;;;;;;;;;;27.95;37.25;100367.66;5064650;28;1024;-36
2022/07/07 01:45:44;;;;;;;;;;;;;;;27.83;36.40;100370.91;5069661;28;1104;-37
2022/07/07 01:48:10;;;;;;;;;;;;;;;27.92;37.33;100370.75;5068041;28;1103;-35
2022/07/07 01:50:35;;;;;;;;;;;;;;;28.01;37.56;100361.44;5061077;28;1115;-36
2022/07/07 01:53:00;;;;;;;;;;;;;;;27.99;37.12;100368.94;5057868;28;1906;-36
2022/07/07 01:55:25;;;;;;;;;;;;;;;28.01;37.56;100361.44;5059251;28;1016;-36
2022/07/07 01:57:51;;;;;;;;;;;;;;;28.07;36.67;100367.94;5070598;28;1231;-36
2022/07/07 02:00:16;;;;;;;;;;;;;;;28.01;37.10;100366.03;5065608;28;1143;-36
2022/07/07 02:02:41;;;;;;;;;;;;;;;27.93;37.12;100361.59;5062857;28;984;-36
2022/07/07 02:05:07;;;;;;;;;;;;;;;27.91;37.10;100356.38;5063685;28;947;-37
2022/07/07 02:07:34;;;;;;;;;;;;;;;27.95;38.18;100364.94;5064739;28;1015;-37
2022/07/07 02:10:00;;;;;;;;;;;;;;;27.98;37.74;100359.97;5065773;28;1207;-35
2022/07/07 02:12:25;;;;;;;;;;;;;;;28.01;36.64;100357.91;5064570;28;1901;-36
2022/07/07 02:14:51;;;;;;;;;;;;;;;27.98;37.42;100356.44;5060365;28;1214;-37
2022/07/07 02:17:17;;;;;;;;;;;;;;;27.98;37.74;100359.13;5074711;28;956;-36
2022/07/07 02:19:43;;;;;;;;;;;;;;;27.98;37.47;100368.09;5062374;28;1019;-37
2022/07/07 02:22:08;;;;;;;;;;;;;;;28.05;37.02;100365.44;5069434;28;1019;-36
2022/07/07 02:24:34;;;;;;;;;;;;;;;27.98;37.44;100372.66;5069552;28;1023;-37
2022/07/07 02:26:59;;;;;;;;;;;;;;;27.92;37.55;100374.28;5058473;28;942;-36
2022/07/07 02:29:24;;;;;;;;;;;;;;;27.85;37.03;100379.66;5064639;28;948;-36
2022/07/07 02:31:50;;;;;;;;;;;;;;;27.98;37.74;100378.06;5065625;28;1072;-36
2022/07/07 02:34:15;;;;;;;;;;;;;;;28.01;37.86;100382.25;5057418;28;1910;-35
2022/07/07 02:36:40;;;;;;;;;;;;;;;27.98;38.09;100373.50;5067055;28;1080;-35
2022/07/07 02:39:06;;;;;;;;;;;;;;;28.01;36.64;100385.78;5060328;28;996;-36
2022/07/07 02:41:31;;;;;;;;;;;;;;;27.95;37.47;100381.16;5064245;28;1107;-36
2022/07/07 02:43:57;;;;;;;;;;;;;;;27.99;37.26;100377.84;5068548;28;1100;-37
2022/07/07 02:46:23;;;;;;;;;;;;;;;28.01;38.02;100377.66;5066104;28;1130;-36
2022/07/07 02:48:48;;;;;;;;;;;;;;;27.97;37.64;100377.25;5062514;28;1304;-37
2022/07/07 02:51:13;;;;;;;;;;;;;;;27.97;37.19;100376.41;5068291;28;1027;-36
2022/07/07 02:53:39;;;;;;;;;;;;;;;28.06;37.97;100375.19;5056702;28;1957;-36
2022/07/07 02:56:04;;;;;;;;;;;;;;;27.95;37.60;100383.88;5059235;28;1087;-36
2022/07/07 02:58:29;;;;;;;;;;;;;;;27.91;38.31;100375.31;5069066;28;1036;-36
2022/07/07 03:00:55;;;;;;;;;;;;;;;28.01;37.78;100364.16;5062268;28;1198;-36
2022/07/07 03:03:20;;;;;;;;;;;;;;;28.01;37.71;100379.56;5064460;28;1043;-35
2022/07/07 03:05:45;;;;;;;;;;;;;;;28.06;37.07;100368.97;5056554;28;1017;-36
2022/07/07 03:08:11;;;;;;;;;;;;;;;27.98;37.76;100378.06;5058702;28;1035;-36
2022/07/07 03:10:36;;;;;;;;;;;;;;;27.89;37.57;100376.56;5066282;28;996;-36
2022/07/07 03:13:01;;;;;;;;;;;;;;;27.91;38.19;100385.31;5067109;28;1972;-36
2022/07/07 03:15:27;;;;;;;;;;;;;;;27.92;37.91;100395.06;5060774;28;984;-36
2022/07/07 03:17:52;;;;;;;;;;;;;;;27.34;40.88;100399.56;5062705;28;1013;-37
2022/07/07 03:20:17;;;;;;;;;;;;;;;26.76;43.00;100396.66;5068476;28;1112;-37
2022/07/07 03:22:43;;;;;;;;;;;;;;;26.59;44.14;100393.31;5066774;28;974;-37
2022/07/07 03:25:08;;;;;;;;;;;;;;;26.59;44.81;100406.81;5058974;28;1190;-36
2022/07/07 03:27:34;;;;;;;;;;;;;;;26.42;45.89;100400.78;5063486;28;1043;-37
2022/07/07 03:29:59;;;;;;;;;;;;;;;26.43;45.70;100399.75;5056375;28;942;-37
2022/07/07 03:32:24;;;;;;;;;;;;;;;26.36;45.77;100407.75;5059812;28;1965;-36
2022/07/07 03:34:50;;;;;;;;;;;;;;;26.37;44.56;100397.81;5060260;28;1194;-37
2022/07/07 03:37:15;;;;;;;;;;;;;;;26.38;44.66;100397.63;5060340;28;1247;-35
2022/07/07 03:39:40;;;;;;;;;;;;;;;26.76;44.98;100401.19;5066025;28;1011;-36
2022/07/07 03:42:06;;;;;;;;;;;;;;;26.72;44.08;100403.47;5063977;28;1219;-37
2022/07/07 03:44:31;;;;;;;;;;;;;;;26.62;43.70;100402.91;5067957;28;1032;-36
2022/07/07 03:46:56;;;;;;;;;;;;;;;26.70;43.96;100416.28;5056447;28;1208;-36
2022/07/07 03:49:22;;;;;;;;;;;;;;;26.68;44.76;100398.59;5057075;28;1088;-36
2022/07/07 03:51:47;;;;;;;;;;;;;;;26.78;44.26;100399.16;5063472;28;1028;-36
2022/07/07 03:54:12;;;;;;;;;;;;;;;26.52;44.00;100395.94;5063009;28;1902;-36
2022/07/07 03:56:38;;;;;;;;;;;;;;;26.65;44.77;100406.06;5062231;28;1158;-39
2022/07/07 03:59:04;;;;;;;;;;;;;;;26.76;44.80;100399.34;5058691;28;1190;-36
2022/07/07 04:01:29;;;;;;;;;;;;;;;26.75;44.57;100396.84;5067920;28;1163;-35
2022/07/07 04:03:54;;;;;;;;;;;;;;;26.75;44.43;100394.13;5070302;28;1004;-34
2022/07/07 04:06:19;;;;;;;;;;;;;;;26.79;43.83;100403.53;5060137;28;921;-34
2022/07/07 04:08:45;;;;;;;;;;;;;;;26.88;43.11;100402.38;5073369;28;988;-34
2022/07/07 04:11:10;;;;;;;;;;;;;;;26.85;43.07;100402.78;5060354;28;2298;-34
2022/07/07 04:13:35;;;;;;;;;;;;;;;26.92;43.16;100402.84;5068460;28;1962;-35
2022/07/07 04:16:00;;;;;;;;;;;;;;;26.92;43.15;100410.09;5055458;28;1974;-34
2022/07/07 04:18:26;;;;;;;;;;;;;;;26.96;43.02;100412.22;5058478;28;2163;-35
2022/07/07 04:20:52;;;;;;;;;;;;;;;26.89;42.85;100416.72;5062087;28;1984;-35
2022/07/07 04:23:17;;;;;;;;;;;;;;;26.72;44.83;100418.81;5064208;28;2193;-35
2022/07/07 04:25:42;;;;;;;;;;;;;;;26.84;43.88;100421.84;5062980;28;1962;-35
2022/07/07 04:28:07;;;;;;;;;;;;;;;26.75;42.88;100430.06;5067851;28;1238;-35
2022/07/07 04:30:33;;;;;;;;;;;;;;;27.07;41.87;100437.09;5071519;28;854;-35
2022/07/07 04:32:58;;;;;;;;;;;;;;;26.35;46.41;100432.22;5071292;28;1964;-35
2022/07/07 04:35:24;;;;;;;;;;;;;;;26.83;43.72;100448.00;5063249;28;1037;-35
2022/07/07 04:37:49;;;;;;;;;;;;;;;26.83;42.90;100456.09;5074506;28;1138;-35
2022/07/07 04:40:14;;;;;;;;;;;;;;;27.04;42.67;100459.06;5065664;28;1005;-34
2022/07/07 04:42:39;;;;;;;;;;;;;;;27.05;43.73;100452.63;5066604;28;1043;-35
2022/07/07 04:45:05;;;;;;;;;;;;;;;27.06;43.97;100467.81;5068196;28;1103;-35
2022/07/07 04:47:30;;;;;;;;;;;;;;;26.86;45.00;100457.59;5065439;28;993;-35
2022/07/07 04:49:56;;;;;;;;;;;;;;;26.66;44.77;100458.16;5063140;28;1087;-35
2022/07/07 04:52:21;;;;;;;;;;;;;;;26.50;44.31;100449.25;5069680;28;1902;-35
2022/07/07 04:54:46;;;;;;;;;;;;;;;24.44;51.48;100444.00;5062722;28;977;-38
2022/07/07 04:57:11;;;;;;;;;;;;;;;24.45;52.47;100447.56;5067798;28;2596;-38
2022/07/07 04:59:37;;;;;;;;;;;;;;;24.64;51.76;100448.16;5068266;28;960;-38
2022/07/07 05:02:02;;;;;;;;;;;;;;;24.32;52.59;100448.09;5070509;28;1207;-38
2022/07/07 05:04:28;;;;;;;;;;;;;;;25.60;48.48;100455.25;5067189;28;952;-38
2022/07/07 05:06:53;;;;;;;;;;;;;;;26.24;46.36;100446.97;5066945;28;953;-38
2022/07/07 05:09:18;;;;;;;;;;;;;;;26.33;46.11;100450.44;5068716;28;996;-37
2022/07/07 05:11:44;;;;;;;;;;;;;;;26.57;45.56;100454.72;5073614;28;1225;-38
2022/07/07 05:14:09;;;;;;;;;;;;;;;26.82;45.03;100446.34;5076447;28;1951;-37
2022/07/07 05:16:34;;;;;;;;;;;;;;;26.60;45.25;100451.66;5073847;28;1134;-38
2022/07/07 05:18:59;;;;;;;;;;;;;;;26.89;44.22;100462.63;5065683;28;937;-38
2022/07/07 05:21:25;;;;;;;;;;;;;;;26.43;45.49;100453.69;5071393;28;1056;-38
2022/07/07 05:23:50;;;;;;;;;;;;;;;26.42;45.34;100468.22;5068265;28;1115;-38
2022/07/07 05:26:15;;;;;;;;;;;;;;;26.82;44.40;100469.78;5064926;28;2506;-38
2022/07/07 05:28:43;;;;;;;;;;;;;;;26.48;46.14;100462.06;5058609;28;981;-38
2022/07/07 05:31:10;;;;;;;;;;;;;;;26.55;45.71;100458.63;5068198;28;1024;-38
2022/07/07 05:33:35;;;;;;;;;;;;;;;26.88;45.21;100472.56;5066287;28;1897;-38
2022/07/07 05:36:00;;;;;;;;;;;;;;;27.01;44.12;100468.34;5065241;28;1013;-38
2022/07/07 05:38:26;;;;;;;;;;;;;;;27.12;44.00;100473.31;5070288;28;1213;-37
2022/07/07 05:40:51;;;;;;;;;;;;;;;26.75;45.25;100469.69;5074592;28;1075;-38
2022/07/07 05:43:16;;;;;;;;;;;;;;;27.24;44.03;100473.63;5066356;28;1052;-38
2022/07/07 05:45:42;;;;;;;;;;;;;;;27.33;44.44;100474.34;5075395;28;1032;-37
2022/07/07 05:48:07;;;;;;;;;;;;;;;27.55;43.44;100478.94;5076515;28;972;-38
2022/07/07 05:50:32;;;;;;;;;;;;;;;27.70;42.72;100474.34;5071592;28;1150;-37
2022/07/07 05:52:57;;;;;;;;;;;;;;;27.49;42.01;100473.25;5069703;28;1902;-37
2022/07/07 05:55:23;;;;;;;;;;;;;;;27.49;42.73;100484.06;5066194;28;1964;-38
2022/07/07 05:57:48;;;;;;;;;;;;;;;27.43;43.82;100484.84;5065986;28;1017;-37
2022/07/07 06:00:13;;;;;;;;;;;;;;;27.62;42.26;100482.53;5057971;28;1176;-37
2022/07/07 06:02:39;;;;;;;;;;;;;;;27.56;43.15;100486.03;5067274;28;1084;-35
2022/07/07 06:05:05;;;;;;;;;;;;;;;27.93;41.57;100488.66;5060626;28;970;-35
2022/07/07 06:07:31;;;;;;;;;;;;;;;28.07;41.31;100487.75;5071089;28;1012;-38
2022/07/07 06:09:56;;;;;;;;;;;;;;;28.22;41.09;100490.34;5069640;28;1512;-38
2022/07/07 06:12:21;;;;;;;;;;;;;;;28.18;42.01;100499.03;5061074;28;1154;-38
2022/07/07 06:14:47;;;;;;;;;;;;;;;28.13;39.53;100496.13;5064414;28;1906;-38
2022/07/07 06:17:12;;;;;;;;;;;;;;;28.34;39.22;100500.66;5065644;28;961;-38
2022/07/07 06:19:37;;;;;;;;;;;;;;;28.47;40.62;100506.16;5056783;28;898;-38
2022/07/07 06:22:04;;;;;;;;;;;;;;;28.24;41.31;100495.56;5064711;28;1004;-38
2022/07/07 06:24:29;;;;;;;;;;;;;;;28.37;40.46;100505.66;5067861;28;1402;-37
2022/07/07 06:26:58;;;;;;;;;;;;;;;28.50;39.59;100496.81;5070664;28;2533;-37
2022/07/07 06:29:26;;;;;;;;;;;;;;;28.36;40.95;100499.41;5071791;28;1150;-37
2022/07/07 06:31:51;;;;;;;;;;;;;;;28.48;39.84;100499.72;5069471;28;836;-39
2022/07/07 06:34:17;;;;;;;;;;;;;;;28.77;39.32;100499.66;5075714;28;1957;-37
2022/07/07 06:36:43;;;;;;;;;;;;;;;28.92;39.79;100507.66;5057635;28;1000;-37
2022/07/07 06:39:09;;;;;;;;;;;;;;;28.90;39.36;100509.72;5069509;28;999;-38
2022/07/07 06:41:35;;;;;;;;;;;;;;;28.75;40.22;100503.59;5065266;28;1194;-40
2022/07/07 06:44:01;;;;;;;;;;;;;;;28.60;38.80;100504.56;5066460;28;846;-38
2022/07/07 06:46:26;;;;;;;;;;;;;;;28.55;39.33;100507.88;5069351;28;980;-40
2022/07/07 06:48:51;;;;;;;;;;;;;;;28.52;39.68;100513.69;5072484;28;995;-40
2022/07/07 06:51:17;;;;;;;;;;;;;;;28.60;39.10;100512.69;5071906;28;929;-36
2022/07/07 06:53:42;;;;;;;;;;;;;;;28.64;38.66;100507.72;5072491;28;1890;-38
2022/07/07 06:56:07;;;;;;;;;;;;;;;28.69;38.58;100507.94;5064738;28;2412;-37
2022/07/07 06:58:35;;;;;;;;;;;;;;;28.78;38.44;100504.03;5070135;28;980;-38
2022/07/07 07:01:01;;;;;;;;;;;;;;;28.81;40.08;100514.47;5060072;28;1121;-39
2022/07/07 07:03:27;;;;;;;;;;;;;;;28.67;39.94;100516.28;5070813;28;1086;-38
2022/07/07 07:05:52;;;;;;;;;;;;;;;28.85;39.09;100520.31;5056597;28;1392;-38
2022/07/07 07:08:18;;;;;;;;;;;;;;;28.85;39.47;100515.75;5057773;28;1369;-38
2022/07/07 07:10:43;;;;;;;;;;;;;;;28.87;39.23;100512.84;5066351;28;1215;-38
2022/07/07 07:13:09;;;;;;;;;;;;;;;29.01;38.64;100513.75;5074383;28;1902;-37
2022/07/07 07:15:35;;;;;;;;;;;;;;;28.90;39.04;100517.84;5061011;28;1163;-38
2022/07/07 07:18:01;;;;;;;;;;;;;;;28.98;38.71;100507.91;5069395;28;944;-37
2022/07/07 07:20:26;;;;;;;;;;;;;;;29.06;38.09;100513.97;5067356;28;910;-37
2022/07/07 07:22:51;;;;;;;;;;;;;;;28.90;39.10;100525.13;5057927;28;985;-38
2022/07/07 07:25:17;;;;;;;;;;;;;;;29.04;38.86;100507.09;5071226;28;988;-38
2022/07/07 07:27:42;;;;;;;;;;;;;;;29.02;39.20;100517.28;5065942;28;2843;-37
2022/07/07 07:30:08;;;;;;;;;;;;;;;29.19;38.56;100515.94;5063682;28;1011;-38
2022/07/07 07:32:33;;;;;;;;;;;;;;;29.31;38.37;100507.19;5057990;28;1965;-39
2022/07/07 07:34:59;;;;;;;;;;;;;;;29.30;38.63;100510.94;5066822;28;1004;-37
2022/07/07 07:37:24;;;;;;;;;;;;;;;29.15;38.35;100506.50;5068307;28;989;-37
2022/07/07 07:39:49;;;;;;;;;;;;;;;28.99;38.25;100505.00;5074926;28;1031;-36
2022/07/07 07:42:14;;;;;;;;;;;;;;;29.03;38.39;100511.69;5062042;28;1017;-35
2022/07/07 07:47:24;;;;;;;;;;;;;;;29.24;38.55;100509.03;5062077;28;643;-36
2022/07/07 07:49:49;;;;;;;;;;;;;;;29.17;37.26;100500.91;5063546;28;1009;-37
2022/07/07 07:52:14;;;;;;;;;;;;;;;29.19;37.66;100502.38;5064742;28;1088;-36
2022/07/07 07:54:40;;;;;;;;;;;;;;;29.24;38.04;100507.19;5065858;28;1976;-38
2022/07/07 07:57:05;;;;;;;;;;;;;;;29.26;38.30;100509.69;5057050;28;2083;-39
2022/07/07 07:59:30;;;;;;;;;;;;;;;29.31;38.47;100504.50;5055935;28;1123;-35
2022/07/07 08:01:56;;;;;;;;;;;;;;;29.35;38.27;100508.44;5058623;28;1115;-35
2022/07/07 08:04:21;;;;;;;;;;;;;;;29.30;38.55;100506.34;5067631;28;884;-35
2022/07/07 08:06:46;;;;;;;;;;;;;;;29.30;39.23;100506.34;5065793;28;1020;-35
2022/07/07 08:09:12;;;;;;;;;;;;;;;29.32;38.43;100500.72;5065397;28;972;-36
2022/07/07 08:11:37;;;;;;;;;;;;;;;29.34;39.09;100504.91;5066980;28;977;-35
2022/07/07 08:14:02;;;;;;;;;;;;;;;29.34;38.80;100499.47;5064032;28;1923;-37
2022/07/07 08:16:28;;;;;;;;;;;;;;;29.34;38.86;100501.38;5067824;28;1000;-37
2022/07/07 08:18:53;;;;;;;;;;;;;;;29.34;38.38;100502.19;5059432;28;854;-36
2022/07/07 08:21:18;;;;;;;;;;;;;;;29.43;38.18;100500.13;5062812;28;854;-35
2022/07/07 08:23:44;;;;;;;;;;;;;;;29.30;37.80;100498.22;5063275;28;1020;-37
2022/07/07 08:26:09;;;;;;;;;;;;;;;29.25;38.60;100503.41;5067952;28;2023;-38
2022/07/07 08:28:35;;;;;;;;;;;;;;;29.37;38.30;100502.81;5068949;28;973;-36
2022/07/07 08:31:00;;;;;;;;;;;;;;;29.41;37.78;100496.78;5061902;28;1083;-36
2022/07/07 08:33:25;;;;;;;;;;;;;;;29.31;38.69;100499.88;5070881;28;1909;-36
2022/07/07 08:35:50;;;;;;;;;;;;;;;29.33;38.52;100503.25;5064952;28;914;-36
2022/07/07 08:38:16;;;;;;;;;;;;;;;29.52;38.41;100517.03;5069516;28;988;-36
2022/07/07 08:40:41;;;;;;;;;;;;;;;29.63;38.71;100514.81;5059063;28;1023;-37
2022/07/07 08:43:06;;;;;;;;;;;;;;;29.60;38.17;100515.19;5062068;28;1282;-35
2022/07/07 08:45:32;;;;;;;;;;;;;;;29.58;38.41;100509.94;5058908;28;1171;-36
2022/07/07 08:47:58;;;;;;;;;;;;;;;29.61;38.22;100514.19;5060013;28;1194;-36
2022/07/07 08:50:23;;;;;;;;;;;;;;;29.76;38.44;100506.66;5063914;28;1029;-37
2022/07/07 08:52:50;;;;;;;;;;;;;;;29.73;37.31;100512.50;5060333;28;1902;-36
2022/07/07 08:55:16;;;;;;;;;;;;;;;29.67;37.87;100506.06;5060686;28;1040;-35
2022/07/07 08:57:41;;;;;;;;;;;;;;;29.64;37.88;100511.91;5068410;28;2242;-37
2022/07/07 09:00:07;;;;;;;;;;;;;;;29.65;37.69;100513.56;5064796;28;1068;-37
2022/07/07 09:02:32;;;;;;;;;;;;;;;29.66;37.84;100515.22;5064039;28;1224;-36
2022/07/07 09:04:58;;;;;;;;;;;;;;;29.67;37.73;100516.06;5071537;28;1175;-36
2022/07/07 09:07:23;;;;;;;;;;;;;;;29.69;37.67;100512.09;5063220;28;1000;-36
2022/07/07 09:09:49;;;;;;;;;;;;;;;29.64;36.64;100513.75;5066014;28;1399;-36
2022/07/07 09:12:15;;;;;;;;;;;;;;;29.69;37.21;100503.97;5063280;28;1001;-36
2022/07/07 09:14:41;;;;;;;;;;;;;;;29.74;36.98;100502.50;5062837;28;1905;-36
2022/07/07 09:17:25;;;;;;;;;;;;;;;29.69;37.28;100511.28;5068047;28;1051;-36
2022/07/07 09:19:57;;;;;;;;;;;;;;;29.64;37.69;100502.91;5057699;28;1131;-36
2022/07/07 09:22:23;;;;;;;;;;;;;;;29.68;36.91;100504.16;5062826;28;1130;-36
2022/07/07 09:24:55;;;;;;;;;;;;;;;29.81;37.30;100512.31;5068085;28;1089;-37
2022/07/07 09:27:20;;;;;;;;;;;;;;;29.86;37.71;100511.72;5065080;28;2191;-35
2022/07/07 09:29:45;;;;;;;;;;;;;;;29.85;37.81;100511.88;5070809;28;1532;-37
2022/07/07 09:32:11;;;;;;;;;;;;;;;29.96;37.72;100515.88;5059979;28;1203;-36
2022/07/07 09:34:37;;;;;;;;;;;;;;;30.05;38.12;100510.03;5061702;28;1898;-37
2022/07/07 09:39:47;;;;;;;;;;;;;;;30.12;37.81;100514.59;5063797;28;921;-38
2022/07/07 09:42:22;;;;;;;;;;;;;;;30.07;37.87;100520.66;5063182;28;1130;-37
2022/07/07 09:44:52;;;;;;;;;;;;;;;30.18;37.54;100522.75;5066271;28;960;-37
2022/07/07 09:47:18;;;;;;;;;;;;;;;29.91;36.88;100503.75;5071277;28;1092;-38
2022/07/07 09:49:43;;;;;;;;;;;;;;;29.89;36.02;100508.56;5075936;28;1055;-36
2022/07/07 09:52:18;;;;;;;;;;;;;;;29.81;35.79;100501.47;5072251;28;1267;-36
2022/07/07 09:54:47;;;;;;;;;;;;;;;29.74;36.40;100497.94;5067641;28;1891;-36
2022/07/07 09:57:13;;;;;;;;;;;;;;;29.71;36.47;100492.94;5074091;28;2253;-36
2022/07/07 09:59:41;;;;;;;;;;;;;;;29.66;36.64;100498.13;5062910;28;1115;-36
2022/07/07 10:02:06;;;;;;;;;;;;;;;29.64;36.88;100494.78;5067984;28;981;-36
2022/07/07 10:04:31;;;;;;;;;;;;;;;29.63;36.50;100498.53;5061108;28;1120;-37
2022/07/07 10:06:57;;;;;;;;;;;;;;;29.62;36.39;100497.69;5065720;28;945;-39
2022/07/07 10:09:25;;;;;;;;;;;;;;;29.73;35.97;100498.94;5065573;28;972;-39
2022/07/07 10:11:51;;;;;;;;;;;;;;;29.81;36.33;100500.66;5058039;28;994;-37
2022/07/07 10:14:17;;;;;;;;;;;;;;;29.81;36.23;100497.94;5073145;28;1925;-38
2022/07/07 10:16:43;;;;;;;;;;;;;;;29.74;36.65;100495.22;5071427;28;1162;-37
2022/07/07 10:19:08;;;;;;;;;;;;;;;29.77;36.56;100494.81;5074442;28;1043;-38
2022/07/07 10:21:34;;;;;;;;;;;;;;;29.81;35.77;100500.66;5061693;28;1260;-37
2022/07/07 10:23:59;;;;;;;;;;;;;;;29.96;36.20;100494.19;5067210;28;977;-37
2022/07/07 10:26:37;;;;;;;;;;;;;;;30.02;35.88;100496.88;5055258;28;2005;-38
2022/07/07 10:29:03;;;;;;;;;;;;;;;29.93;36.28;100487.28;5064656;28;980;-39
2022/07/07 10:31:28;;;;;;;;;;;;;;;30.03;35.85;100487.69;5064965;28;1028;-38
2022/07/07 10:33:54;;;;;;;;;;;;;;;29.91;35.94;100486.69;5055409;28;1882;-37
2022/07/07 10:36:19;;;;;;;;;;;;;;;29.83;36.45;100487.69;5062686;28;1139;-38
2022/07/07 10:38:44;;;;;;;;;;;;;;;29.85;36.43;100493.75;5064840;28;1047;-36
2022/07/07 10:41:10;;;;;;;;;;;;;;;29.82;37.14;100478.75;5069748;28;973;-36
2022/07/07 10:43:38;;;;;;;;;;;;;;;29.94;35.98;100487.09;5066746;28;1182;-38
2022/07/07 10:46:03;;;;;;;;;;;;;;;29.81;36.44;100482.47;5064205;28;1527;-37
2022/07/07 10:48:42;;;;;;;;;;;;;;;29.70;36.64;100473.09;5068634;28;1274;-37
2022/07/07 10:51:23;;;;;;;;;;;;;;;29.69;36.06;100474.16;5058128;28;989;-37
2022/07/07 10:54:02;;;;;;;;;;;;;;;29.80;36.43;100469.13;5071150;28;1933;-36
2022/07/07 10:56:28;;;;;;;;;;;;;;;29.83;36.74;100466.00;5058955;28;1919;-36
2022/07/07 10:58:57;;;;;;;;;;;;;;;29.72;36.13;100472.06;5062707;28;989;-37
2022/07/07 11:01:23;;;;;;;;;;;;;;;29.72;36.48;100475.59;5064082;28;1196;-36
2022/07/07 11:03:48;;;;;;;;;;;;;;;29.75;36.39;100480.63;5067112;28;1048;-36
2022/07/07 11:06:15;;;;;;;;;;;;;;;29.82;35.80;100473.31;5057891;28;1112;-36
2022/07/07 11:08:40;;;;;;;;;;;;;;;29.83;36.26;100468.72;5058732;28;1191;-37
2022/07/07 11:11:05;;;;;;;;;;;;;;;29.88;35.89;100473.53;5056010;28;1179;-36
2022/07/07 11:13:34;;;;;;;;;;;;;;;29.97;37.73;100482.28;5058364;28;1914;-37
2022/07/07 11:16:06;;;;;;;;;;;;;;;30.15;37.18;100484.34;5066516;28;964;-37
2022/07/07 11:18:32;;;;;;;;;;;;;;;30.40;36.57;100484.56;5068748;28;1063;-36
2022/07/07 11:20:58;;;;;;;;;;;;;;;30.46;36.84;100482.88;5059160;28;1084;-36
2022/07/07 11:23:47;;;;;;;;;;;;;;;30.59;36.30;100498.31;5062194;28;1044;-38
2022/07/07 11:26:16;;;;;;;;;;;;;;;30.51;36.46;100490.38;5055944;28;2575;-38
2022/07/07 11:28:42;;;;;;;;;;;;;;;30.49;36.25;100489.75;5065486;28;1039;-36
2022/07/07 11:31:07;;;;;;;;;;;;;;;30.55;36.35;100494.31;5061304;28;1277;-38
2022/07/07 11:33:33;;;;;;;;;;;;;;;30.65;36.52;100486.56;5058859;28;1910;-37
2022/07/07 11:35:58;;;;;;;;;;;;;;;30.77;36.61;100497.63;5074775;28;873;-36
2022/07/07 11:38:28;;;;;;;;;;;;;;;30.79;36.11;100495.53;5062391;28;949;-38
2022/07/07 11:40:53;;;;;;;;;;;;;;;30.26;34.29;100461.22;5063389;28;1170;-37
2022/07/07 11:43:19;;;;;;;;;;;;;;;30.35;35.30;100470.78;5058174;28;974;-36
2022/07/07 11:45:45;;;;;;;;;;;;;;;30.43;35.62;100502.28;5061184;28;1061;-36
2022/07/07 11:48:10;;;;;;;;;;;;;;;30.45;35.35;100475.78;5064717;28;1064;-37
2022/07/07 11:50:35;;;;;;;;;;;;;;;30.53;35.31;100485.59;5068183;28;1242;-38
2022/07/07 11:53:01;;;;;;;;;;;;;;;30.33;34.53;100472.06;5064028;28;1901;-38
2022/07/07 11:55:26;;;;;;;;;;;;;;;30.47;35.15;100464.69;5067483;28;2421;-37
2022/07/07 11:57:52;;;;;;;;;;;;;;;30.51;35.13;100482.25;5057961;28;1080;-38
2022/07/07 12:00:21;;;;;;;;;;;;;;;30.64;35.54;100476.78;5069991;28;1166;-36
2022/07/07 12:02:47;;;;;;;;;;;;;;;30.51;35.73;100483.06;5061112;28;1195;-37
2022/07/07 12:05:15;;;;;;;;;;;;;;;30.38;33.51;100462.22;5066748;28;1007;-36
2022/07/07 12:07:41;;;;;;;;;;;;;;;30.42;34.95;100457.19;5059079;28;1188;-39
2022/07/07 12:10:17;;;;;;;;;;;;;;;30.52;34.89;100465.75;5065977;28;1010;-36
2022/07/07 12:12:52;;;;;;;;;;;;;;;30.61;35.15;100496.22;5067084;28;1937;-37
2022/07/07 12:15:18;;;;;;;;;;;;;;;30.38;32.62;100469.53;5062548;28;1032;-38
2022/07/07 12:17:43;;;;;;;;;;;;;;;30.51;34.01;100468.69;5068185;28;952;-37
2022/07/07 12:20:14;;;;;;;;;;;;;;;30.60;34.40;100469.25;5069632;28;1009;-37
2022/07/07 12:22:42;;;;;;;;;;;;;;;30.81;35.17;100479.03;5064476;28;1127;-38
2022/07/07 12:25:09;;;;;;;;;;;;;;;30.87;34.70;100467.31;5067745;28;1063;-37
2022/07/07 12:27:34;;;;;;;;;;;;;;;30.96;34.63;100470.63;5058618;28;2180;-38
2022/07/07 12:30:00;;;;;;;;;;;;;;;30.95;34.60;100451.84;5061214;28;1015;-38
2022/07/07 12:32:25;;;;;;;;;;;;;;;30.92;34.46;100453.94;5068512;28;984;-37
2022/07/07 12:34:50;;;;;;;;;;;;;;;30.85;34.72;100453.13;5063602;28;1976;-38
2022/07/07 12:37:16;;;;;;;;;;;;;;;30.85;34.72;100453.13;5069020;28;996;-38
2022/07/07 12:39:44;;;;;;;;;;;;;;;30.99;35.23;100474.78;5059536;28;1246;-38
2022/07/07 12:42:09;;;;;;;;;;;;;;;31.11;34.94;100481.22;5070556;28;1060;-37
2022/07/07 12:44:35;;;;;;;;;;;;;;;31.25;34.88;100481.97;5067126;28;1505;-38
2022/07/07 12:47:00;;;;;;;;;;;;;;;31.39;34.89;100465.59;5060525;28;1119;-37